createdAt,value
2022-08-25T00:00:21.148Z,22.20
2022-08-25T00:02:55.660Z,22.10
2022-08-25T00:05:32.289Z,22.00
2022-08-25T00:08:06.168Z,22.00
2022-08-25T00:10:37.200Z,21.90
2022-08-25T00:13:06.780Z,21.90
2022-08-25T00:15:36.068Z,21.80
2022-08-25T00:18:05.363Z,21.80
2022-08-25T00:20:43.312Z,21.60
2022-08-25T00:23:19.488Z,21.60
2022-08-25T00:25:47.897Z,21.70
2022-08-25T00:28:16.787Z,21.60
2022-08-25T00:30:45.984Z,21.70
2022-08-25T00:33:14.680Z,21.60
2022-08-25T00:35:44.029Z,21.60
2022-08-25T00:38:13.124Z,21.60
2022-08-25T00:40:44.474Z,21.50
2022-08-25T00:43:13.958Z,21.50
2022-08-25T00:45:42.311Z,21.50
2022-08-25T00:48:10.934Z,21.40
2022-08-25T00:50:39.379Z,21.40
2022-08-25T00:53:09.797Z,21.40
2022-08-25T00:55:40.973Z,21.30
2022-08-25T00:58:18.249Z,21.30
2022-08-25T01:00:50.893Z,21.30
2022-08-25T01:03:21.428Z,21.20
2022-08-25T01:05:54.884Z,21.20
2022-08-25T01:08:28.198Z,21.20
2022-08-25T01:11:00.448Z,21.10
2022-08-25T01:13:37.706Z,21.10
2022-08-25T01:16:06.561Z,21.10
2022-08-25T01:18:48.497Z,21.10
2022-08-25T01:21:22.568Z,21.10
2022-08-25T01:23:52.579Z,21.00
2022-08-25T01:26:30.158Z,21.00
2022-08-25T01:29:20.429Z,21.00
2022-08-25T01:31:50.160Z,21.00
2022-08-25T01:34:21.363Z,20.90
2022-08-25T01:36:51.312Z,20.90
2022-08-25T01:39:20.068Z,20.90
2022-08-25T01:42:10.153Z,20.90
2022-08-25T01:44:43.467Z,20.80
2022-08-25T01:47:13.338Z,20.80
2022-08-25T01:49:41.966Z,20.80
2022-08-25T01:52:20.361Z,20.70
2022-08-25T01:54:50.250Z,20.70
2022-08-25T01:57:18.773Z,20.70
2022-08-25T01:59:48.049Z,20.60
2022-08-25T02:02:18.310Z,20.60
2022-08-25T02:04:48.687Z,20.50
2022-08-25T02:07:21.353Z,20.50
2022-08-25T02:09:49.794Z,20.50
2022-08-25T02:12:18.252Z,20.50
2022-08-25T02:14:48.746Z,20.40
2022-08-25T02:17:17.500Z,20.40
2022-08-25T02:19:45.844Z,20.40
2022-08-25T02:22:14.233Z,20.30
2022-08-25T02:24:44.072Z,20.40
2022-08-25T02:27:12.496Z,20.30
2022-08-25T02:29:41.044Z,20.20
2022-08-25T02:32:10.232Z,20.30
2022-08-25T02:34:41.104Z,20.30
2022-08-25T02:37:09.761Z,20.20
2022-08-25T02:39:38.180Z,20.20
2022-08-25T02:42:08.375Z,20.20
2022-08-25T02:44:36.762Z,20.20
2022-08-25T02:47:06.025Z,20.20
2022-08-25T02:49:35.235Z,20.10
2022-08-25T02:52:05.290Z,20.10
2022-08-25T02:54:33.741Z,20.10
2022-08-25T02:57:02.556Z,20.10
2022-08-25T02:59:32.333Z,20.10
2022-08-25T03:02:00.684Z,20.00
2022-08-25T03:04:29.485Z,20.00
2022-08-25T03:06:58.128Z,20.00
2022-08-25T03:09:27.879Z,17.00
2022-08-25T03:11:56.221Z,19.90
2022-08-25T03:14:24.955Z,19.90
2022-08-25T03:16:54.772Z,19.90
2022-08-25T03:19:24.264Z,19.90
2022-08-25T03:21:56.181Z,19.80
2022-08-25T03:24:25.081Z,19.80
2022-08-25T03:26:55.878Z,19.80
2022-08-25T03:29:25.844Z,19.70
2022-08-25T03:31:58.166Z,19.70
2022-08-25T03:34:29.016Z,19.70
2022-08-25T03:36:58.832Z,19.60
2022-08-25T03:39:28.976Z,19.60
2022-08-25T03:41:57.429Z,19.60
2022-08-25T03:44:25.843Z,19.60
2022-08-25T03:46:55.668Z,19.60
2022-08-25T03:49:25.677Z,19.60
2022-08-25T03:51:55.880Z,19.50
2022-08-25T03:54:27.020Z,19.50
2022-08-25T03:56:56.080Z,19.50
2022-08-25T03:59:24.453Z,19.50
2022-08-25T04:01:55.412Z,19.40
2022-08-25T04:04:25.876Z,19.50
2022-08-25T04:06:54.317Z,19.40
2022-08-25T04:09:22.704Z,19.40
2022-08-25T04:11:51.985Z,19.30
2022-08-25T04:14:23.456Z,19.30
2022-08-25T04:16:52.874Z,19.30
2022-08-25T04:19:22.234Z,19.30
2022-08-25T04:21:56.591Z,19.20
2022-08-25T04:24:25.453Z,19.20
2022-08-25T04:26:54.401Z,19.20
2022-08-25T04:29:25.408Z,19.20
2022-08-25T04:31:55.817Z,19.20
2022-08-25T04:34:31.117Z,19.20
2022-08-25T04:37:03.414Z,19.20
2022-08-25T04:39:32.341Z,19.20
2022-08-25T04:42:01.488Z,19.20
2022-08-25T04:44:31.862Z,19.10
2022-08-25T04:47:01.083Z,19.10
2022-08-25T04:49:29.812Z,19.10
2022-08-25T04:51:58.219Z,19.10
2022-08-25T04:54:28.253Z,19.10
2022-08-25T04:56:58.628Z,19.10
2022-08-25T04:59:30.142Z,19.10
2022-08-25T05:02:02.452Z,19.10
2022-08-25T05:04:32.753Z,19.10
2022-08-25T05:07:02.583Z,19.10
2022-08-25T05:09:33.073Z,19.10
2022-08-25T05:12:02.934Z,19.10
2022-08-25T05:14:32.004Z,19.10
2022-08-25T05:17:01.074Z,19.10
2022-08-25T05:19:29.676Z,19.10
2022-08-25T05:21:58.311Z,19.20
2022-08-25T05:24:27.939Z,19.20
2022-08-25T05:26:58.046Z,19.20
2022-08-25T05:29:27.358Z,19.20
2022-08-25T05:31:55.945Z,19.20
2022-08-25T05:34:25.314Z,19.20
2022-08-25T05:36:54.547Z,19.30
2022-08-25T05:39:22.996Z,19.30
2022-08-25T05:41:53.021Z,19.30
2022-08-25T05:44:22.807Z,19.30
2022-08-25T05:46:51.516Z,19.40
2022-08-25T05:49:20.333Z,19.40
2022-08-25T05:51:48.829Z,19.40
2022-08-25T05:56:46.488Z,19.50
2022-08-25T05:59:15.008Z,19.60
2022-08-25T06:02:02.680Z,19.60
2022-08-25T06:04:31.245Z,19.60
2022-08-25T06:06:59.591Z,19.70
2022-08-25T06:09:28.033Z,19.70
2022-08-25T06:11:56.805Z,19.80
2022-08-25T06:14:26.108Z,19.80
2022-08-25T06:16:56.912Z,19.80
2022-08-25T06:19:25.305Z,20.00
2022-08-25T06:21:56.492Z,20.00
2022-08-25T06:24:26.000Z,20.10
2022-08-25T06:26:56.063Z,20.10
2022-08-25T06:29:24.997Z,20.20
2022-08-25T06:31:55.141Z,20.30
2022-08-25T06:34:24.140Z,20.30
2022-08-25T06:36:53.840Z,19.80
2022-08-25T06:39:24.240Z,20.50
2022-08-25T06:41:54.099Z,20.60
2022-08-25T06:44:23.829Z,20.70
2022-08-25T06:46:52.422Z,20.70
2022-08-25T06:49:22.719Z,20.80
2022-08-25T06:51:51.291Z,20.80
2022-08-25T06:54:19.662Z,20.90
2022-08-25T06:56:49.673Z,21.10
2022-08-25T06:59:18.805Z,21.10
2022-08-25T07:01:49.701Z,21.20
2022-08-25T07:04:18.762Z,21.30
2022-08-25T07:06:49.052Z,21.50
2022-08-25T07:09:17.976Z,21.80
2022-08-25T07:11:47.063Z,22.20
2022-08-25T07:14:18.673Z,22.80
2022-08-25T07:16:50.306Z,23.50
2022-08-25T07:19:20.939Z,24.00
2022-08-25T07:21:54.070Z,24.60
2022-08-25T07:24:23.898Z,25.20
2022-08-25T07:26:53.281Z,25.70
2022-08-25T07:29:32.278Z,26.10
2022-08-25T07:32:02.406Z,26.50
2022-08-25T07:34:52.163Z,26.90
2022-08-25T07:37:47.978Z,27.40
2022-08-25T07:40:17.687Z,27.50
2022-08-25T07:42:46.774Z,27.80
2022-08-25T07:45:17.383Z,28.00
2022-08-25T07:47:51.692Z,28.20
2022-08-25T07:50:21.708Z,28.40
2022-08-25T07:52:55.491Z,28.70
2022-08-25T07:55:25.605Z,28.80
2022-08-25T07:57:57.062Z,29.00
2022-08-25T08:00:29.947Z,29.20
2022-08-25T08:02:59.571Z,29.50
2022-08-25T08:05:28.413Z,29.80
2022-08-25T08:07:58.827Z,30.20
2022-08-25T08:10:47.987Z,30.50
2022-08-25T08:13:18.627Z,30.80
2022-08-25T08:15:48.578Z,31.10
2022-08-25T08:18:18.474Z,31.30
2022-08-25T08:20:49.068Z,31.60
2022-08-25T08:23:19.001Z,31.80
2022-08-25T08:25:48.153Z,32.00
2022-08-25T08:28:16.804Z,32.20
2022-08-25T08:30:52.763Z,32.40
2022-08-25T08:33:24.837Z,32.60
2022-08-25T08:36:04.965Z,32.70
2022-08-25T08:38:36.355Z,32.90
2022-08-25T08:41:54.310Z,33.00
2022-08-25T08:44:32.810Z,33.10
2022-08-25T08:47:12.112Z,33.40
2022-08-25T08:49:51.040Z,33.70
2022-08-25T08:52:25.500Z,33.90
2022-08-25T08:55:07.349Z,34.30
2022-08-25T08:57:44.122Z,34.60
2022-08-25T09:00:13.889Z,34.70
2022-08-25T09:02:53.664Z,34.90
2022-08-25T09:05:28.241Z,34.90
2022-08-25T09:08:01.921Z,35.00
2022-08-25T09:10:54.704Z,35.10
2022-08-25T09:13:43.029Z,35.20
2022-08-25T09:16:40.784Z,35.30
2022-08-25T09:19:32.156Z,36.30
2022-08-25T09:22:35.995Z,35.70
2022-08-25T09:25:10.338Z,36.00
2022-08-25T09:27:51.599Z,36.20
2022-08-25T09:30:25.082Z,36.20
2022-08-25T09:33:03.962Z,36.20
2022-08-25T09:35:37.505Z,36.20
2022-08-25T09:38:11.203Z,36.40
2022-08-25T09:40:42.917Z,36.50
2022-08-25T09:43:23.674Z,36.70
2022-08-25T09:46:01.685Z,36.90
2022-08-25T09:48:39.791Z,37.00
2022-08-25T09:51:21.855Z,37.10
2022-08-25T09:53:55.919Z,36.70
2022-08-25T09:56:27.521Z,36.10
2022-08-25T09:59:18.274Z,35.80
2022-08-25T10:01:51.383Z,35.90
2022-08-25T10:04:28.105Z,36.30
2022-08-25T10:06:56.735Z,36.70
2022-08-25T10:09:33.075Z,36.80
2022-08-25T10:12:04.961Z,36.60
2022-08-25T10:14:44.258Z,36.50
2022-08-25T10:17:24.639Z,36.70
2022-08-25T10:20:15.246Z,37.00
2022-08-25T10:22:45.959Z,37.40
2022-08-25T10:25:21.184Z,37.50
2022-08-25T10:28:03.665Z,37.10
2022-08-25T10:30:52.156Z,36.80
2022-08-25T10:33:33.486Z,36.80
2022-08-25T10:36:15.057Z,36.80
2022-08-25T10:38:56.282Z,36.50
2022-08-25T10:41:44.958Z,35.40
2022-08-25T10:44:42.438Z,34.30
2022-08-25T10:47:50.183Z,33.60
2022-08-25T10:50:30.428Z,33.20
2022-08-25T10:53:47.317Z,33.00
2022-08-25T10:56:22.441Z,32.90
2022-08-25T10:59:28.321Z,32.90
2022-08-25T11:02:49.272Z,33.00
2022-08-25T11:05:28.069Z,33.50
2022-08-25T11:08:08.096Z,33.60
2022-08-25T11:10:45.624Z,33.80
2022-08-25T11:13:30.462Z,33.90
2022-08-25T11:16:23.692Z,34.00
2022-08-25T11:19:05.391Z,34.50
2022-08-25T11:21:46.893Z,34.80
2022-08-25T11:24:53.997Z,35.20
2022-08-25T11:27:29.321Z,35.30
2022-08-25T11:30:07.100Z,35.60
2022-08-25T11:32:36.995Z,35.60
2022-08-25T11:35:09.816Z,35.40
2022-08-25T11:37:59.024Z,35.10
2022-08-25T11:40:51.825Z,34.90
2022-08-25T11:43:56.721Z,34.60
2022-08-25T11:46:42.289Z,34.50
2022-08-25T11:49:48.477Z,34.50
2022-08-25T11:52:49.106Z,34.60
2022-08-25T11:55:24.065Z,35.10
2022-08-25T11:58:14.161Z,35.40
2022-08-25T12:00:46.024Z,35.50
2022-08-25T12:03:53.137Z,35.30
2022-08-25T12:06:27.941Z,35.10
2022-08-25T12:09:20.181Z,35.10
2022-08-25T12:11:55.027Z,34.50
2022-08-25T12:14:47.976Z,34.70
2022-08-25T12:17:25.343Z,34.90
2022-08-25T12:20:00.592Z,34.90
2022-08-25T12:23:00.039Z,35.50
2022-08-25T12:25:54.780Z,35.50
2022-08-25T12:28:58.931Z,35.20
2022-08-25T12:32:04.919Z,34.50
2022-08-25T12:34:54.212Z,34.10
2022-08-25T12:37:25.162Z,33.80
2022-08-25T12:40:01.403Z,33.70
2022-08-25T12:42:36.293Z,33.70
2022-08-25T12:45:31.123Z,33.60
2022-08-25T12:48:58.213Z,34.00
2022-08-25T12:51:29.909Z,34.10
2022-08-25T12:54:22.326Z,35.10
2022-08-25T12:56:57.304Z,36.20
2022-08-25T12:59:37.876Z,36.80
2022-08-25T13:02:36.631Z,36.80
2022-08-25T13:05:29.549Z,36.40
2022-08-25T13:08:42.178Z,36.10
2022-08-25T13:11:20.251Z,36.20
2022-08-25T13:13:57.512Z,36.80
2022-08-25T13:16:30.342Z,37.50
2022-08-25T13:19:04.811Z,38.40
2022-08-25T13:21:39.365Z,39.10
2022-08-25T13:24:15.660Z,39.60
2022-08-25T13:26:48.450Z,40.00
2022-08-25T13:29:22.505Z,40.40
2022-08-25T13:31:58.713Z,40.70
2022-08-25T13:34:34.956Z,41.10
2022-08-25T13:37:22.439Z,41.30
2022-08-25T13:39:56.582Z,41.50
2022-08-25T13:42:29.112Z,41.60
2022-08-25T13:44:57.991Z,41.60
2022-08-25T13:47:45.169Z,41.40
2022-08-25T13:50:32.001Z,41.60
2022-08-25T13:53:04.985Z,41.70
2022-08-25T13:55:51.399Z,41.50
2022-08-25T13:58:32.474Z,41.20
2022-08-25T14:01:23.009Z,41.10
2022-08-25T14:04:29.501Z,41.00
2022-08-25T14:07:19.583Z,41.40
2022-08-25T14:09:52.810Z,41.90
2022-08-25T14:12:39.499Z,42.10
2022-08-25T14:15:27.067Z,41.70
2022-08-25T14:18:05.549Z,39.80
2022-08-25T14:20:38.905Z,39.40
2022-08-25T14:23:16.250Z,39.70
2022-08-25T14:25:47.785Z,39.70
2022-08-25T14:28:19.466Z,40.30
2022-08-25T14:30:52.147Z,40.80
2022-08-25T14:33:23.790Z,41.10
2022-08-25T14:35:59.023Z,41.40
2022-08-25T14:38:27.629Z,41.40
2022-08-25T14:40:59.248Z,41.70
2022-08-25T14:43:31.786Z,41.60
2022-08-25T14:46:15.536Z,42.00
2022-08-25T14:48:47.058Z,41.50
2022-08-25T14:51:19.452Z,41.40
2022-08-25T14:53:49.121Z,41.60
2022-08-25T14:56:17.680Z,41.80
2022-08-25T14:58:50.856Z,42.00
2022-08-25T15:01:29.283Z,42.00
2022-08-25T15:04:04.673Z,42.00
2022-08-25T15:06:36.193Z,42.20
2022-08-25T15:09:13.790Z,42.40
2022-08-25T15:11:45.581Z,42.40
2022-08-25T15:14:17.411Z,42.40
2022-08-25T15:16:50.148Z,42.40
2022-08-25T15:19:23.477Z,42.40
2022-08-25T15:21:54.371Z,42.20
2022-08-25T15:24:27.695Z,42.10
2022-08-25T15:26:58.886Z,42.20
2022-08-25T15:29:30.325Z,42.10
2022-08-25T15:32:00.546Z,42.00
2022-08-25T15:34:29.176Z,42.00
2022-08-25T15:37:00.928Z,41.80
2022-08-25T15:39:31.383Z,41.70
2022-08-25T15:41:59.750Z,41.60
2022-08-25T15:44:29.681Z,41.60
2022-08-25T15:46:59.194Z,41.50
2022-08-25T15:49:31.278Z,41.40
2022-08-25T15:52:01.616Z,41.30
2022-08-25T15:54:30.993Z,41.20
2022-08-25T15:57:00.051Z,41.10
2022-08-25T15:59:30.148Z,41.10
2022-08-25T16:01:59.369Z,41.20
2022-08-25T16:04:29.690Z,41.10
2022-08-25T16:07:00.891Z,41.20
2022-08-25T16:09:31.276Z,41.20
2022-08-25T16:12:04.034Z,41.20
2022-08-25T16:14:35.339Z,41.20
2022-08-25T16:17:04.323Z,41.00
2022-08-25T16:19:33.588Z,40.90
2022-08-25T16:22:08.814Z,40.90
2022-08-25T16:24:42.054Z,40.90
2022-08-25T16:27:12.037Z,41.00
2022-08-25T16:29:43.752Z,41.00
2022-08-25T16:32:14.977Z,41.10
2022-08-25T16:34:44.852Z,41.00
2022-08-25T16:37:14.720Z,40.90
2022-08-25T16:39:45.636Z,40.70
2022-08-25T16:42:15.006Z,40.50
2022-08-25T16:44:43.338Z,40.30
2022-08-25T16:47:14.149Z,40.20
2022-08-25T16:49:43.865Z,40.10
2022-08-25T16:52:31.532Z,40.10
2022-08-25T16:55:16.468Z,40.00
2022-08-25T16:57:48.025Z,40.10
2022-08-25T17:00:21.921Z,39.90
2022-08-25T17:02:54.229Z,39.80
2022-08-25T17:05:22.854Z,39.80
2022-08-25T17:08:07.276Z,39.70
2022-08-25T17:10:38.553Z,39.60
2022-08-25T17:13:07.983Z,39.10
2022-08-25T17:15:40.933Z,38.80
2022-08-25T17:18:11.158Z,38.50
2022-08-25T17:20:40.325Z,38.30
2022-08-25T17:23:12.390Z,38.20
2022-08-25T17:25:43.550Z,38.00
2022-08-25T17:28:13.037Z,37.70
2022-08-25T17:30:43.476Z,37.60
2022-08-25T17:33:12.447Z,37.30
2022-08-25T17:35:41.891Z,37.00
2022-08-25T17:38:12.871Z,36.50
2022-08-25T17:40:41.475Z,36.10
2022-08-25T17:48:10.195Z,35.00
2022-08-25T17:50:39.379Z,34.80
2022-08-25T17:55:42.305Z,34.50
2022-08-25T17:58:16.013Z,34.00
2022-08-25T18:00:47.074Z,33.80
2022-08-25T18:05:47.341Z,33.30
2022-08-25T18:08:18.790Z,33.00
2022-08-25T18:10:51.909Z,32.70
2022-08-25T18:13:23.337Z,32.40
2022-08-25T18:15:51.757Z,32.10
2022-08-25T18:18:29.586Z,31.90
2022-08-25T18:20:58.004Z,31.60
2022-08-25T18:23:28.760Z,31.40
2022-08-25T18:26:00.783Z,31.20
2022-08-25T18:28:29.963Z,31.00
2022-08-25T18:30:58.867Z,30.80
2022-08-25T18:33:29.959Z,30.60
2022-08-25T18:38:45.628Z,30.40
2022-08-25T18:41:15.830Z,30.10
2022-08-25T18:43:44.465Z,30.20
2022-08-25T18:46:13.064Z,29.90
2022-08-25T18:48:41.553Z,29.70
2022-08-25T18:56:21.940Z,29.30
2022-08-25T18:58:50.371Z,29.20
2022-08-25T19:01:20.649Z,29.10
2022-08-25T19:03:50.311Z,29.10
2022-08-25T19:06:19.499Z,28.90
2022-08-25T19:08:49.692Z,28.80
2022-08-25T19:11:22.397Z,28.80
2022-08-25T19:16:32.861Z,28.50
2022-08-25T19:19:03.644Z,28.50
2022-08-25T19:21:32.399Z,28.40
2022-08-25T19:24:01.375Z,28.30
2022-08-25T19:26:35.289Z,28.20
2022-08-25T19:29:04.314Z,28.10
2022-08-25T19:31:33.468Z,28.00
2022-08-25T19:34:03.564Z,27.90
2022-08-25T19:36:32.178Z,27.80
2022-08-25T19:39:03.729Z,27.70
2022-08-25T19:41:34.424Z,27.60
2022-08-25T19:44:03.566Z,27.50
2022-08-25T19:46:36.114Z,27.50
2022-08-25T19:49:12.736Z,27.40
2022-08-25T19:51:45.671Z,27.40
2022-08-25T19:54:16.422Z,27.30
2022-08-25T19:56:54.320Z,27.20
2022-08-25T19:59:34.316Z,27.20
2022-08-25T20:02:15.367Z,27.10
2022-08-25T20:04:50.003Z,27.10
2022-08-25T20:07:21.143Z,27.10
2022-08-25T20:09:49.777Z,27.00
2022-08-25T20:12:21.180Z,27.00
2022-08-25T20:14:51.419Z,27.00
2022-08-25T20:17:24.839Z,26.90
2022-08-25T20:20:00.257Z,26.90
2022-08-25T20:22:32.273Z,26.90
2022-08-25T20:25:13.033Z,26.80
2022-08-25T20:27:47.600Z,26.80
2022-08-25T20:30:22.063Z,26.70
2022-08-25T20:32:50.977Z,26.70
2022-08-25T20:35:26.783Z,26.60
2022-08-25T20:37:56.762Z,26.60
2022-08-25T20:40:27.864Z,26.60
2022-08-25T20:43:01.966Z,26.50
2022-08-25T20:45:31.882Z,25.80
2022-08-25T20:48:00.518Z,26.40
2022-08-25T20:50:29.032Z,26.30
2022-08-25T20:52:58.736Z,26.30
2022-08-25T20:55:28.896Z,26.20
2022-08-25T20:57:58.924Z,26.20
2022-08-25T21:00:27.463Z,26.10
2022-08-25T21:02:56.655Z,26.00
2022-08-25T21:05:25.212Z,26.00
2022-08-25T21:07:53.689Z,25.90
2022-08-25T21:10:22.260Z,25.90
2022-08-25T21:12:53.248Z,25.80
2022-08-25T21:15:23.564Z,25.80
2022-08-25T21:17:54.337Z,25.70
2022-08-25T21:20:24.735Z,25.60
2022-08-25T21:22:54.435Z,25.60
2022-08-25T21:25:23.860Z,25.60
2022-08-25T21:27:52.486Z,25.50
2022-08-25T21:30:22.415Z,25.40
2022-08-25T21:32:53.766Z,25.30
2022-08-25T21:35:23.808Z,25.30
2022-08-25T21:37:54.776Z,25.30
2022-08-25T21:40:24.570Z,25.20
2022-08-25T21:42:53.597Z,25.20
2022-08-25T21:45:23.366Z,25.10
2022-08-25T21:47:52.489Z,25.10
2022-08-25T21:50:21.697Z,25.10
2022-08-25T21:52:54.298Z,25.00
2022-08-25T21:55:23.641Z,26.80
2022-08-25T21:57:52.585Z,24.90
2022-08-25T22:00:23.471Z,24.90
2022-08-25T22:02:52.869Z,24.90
2022-08-25T22:05:21.391Z,24.90
2022-08-25T22:07:50.445Z,24.80
2022-08-25T22:10:21.102Z,24.80
2022-08-25T22:12:51.108Z,24.80
2022-08-25T22:15:19.885Z,24.70
2022-08-25T22:17:49.648Z,24.70
2022-08-25T22:20:19.619Z,24.70
2022-08-25T22:22:48.626Z,24.60
2022-08-25T22:25:17.215Z,24.60
2022-08-25T22:27:45.604Z,22.60
2022-08-25T22:30:15.538Z,24.50
2022-08-25T22:32:45.596Z,24.50
2022-08-25T22:35:15.617Z,24.40
2022-08-25T22:37:47.597Z,24.30
2022-08-25T22:40:16.217Z,24.30
2022-08-25T22:42:48.059Z,24.20
2022-08-25T22:45:17.150Z,24.20
2022-08-25T22:47:45.845Z,24.20
2022-08-25T22:50:17.306Z,24.10
2022-08-25T22:55:16.656Z,24.10
2022-08-25T22:57:45.399Z,24.10
2022-08-25T23:00:16.820Z,24.00
2022-08-25T23:02:46.652Z,24.00
2022-08-25T23:05:17.517Z,24.00
2022-08-25T23:07:45.941Z,23.90
2022-08-25T23:10:15.261Z,23.90
2022-08-25T23:12:44.191Z,23.90
2022-08-25T23:15:14.153Z,23.80
2022-08-25T23:20:26.244Z,23.70
2022-08-25T23:22:56.212Z,23.70
2022-08-25T23:25:25.080Z,23.60
2022-08-25T23:27:53.475Z,23.60
2022-08-25T23:30:22.108Z,23.60
2022-08-25T23:37:48.490Z,23.50
2022-08-25T23:40:20.631Z,23.50
2022-08-25T23:42:50.884Z,23.40
2022-08-25T23:45:19.433Z,23.40
2022-08-25T23:47:47.846Z,23.30
2022-08-25T23:50:18.366Z,23.30
2022-08-25T23:52:47.737Z,23.20
2022-08-25T23:55:16.181Z,23.20
2022-08-25T23:57:51.405Z,23.20
